^^
Datos históricos de la estación: Murcia-Puente Tocinos
Diario Informe para Agosto 11, 2019 Unidades:  Ingés    Métrico   Ambas
Diario Semanal Mensual Anual
  Máxima: Mínima: Promedio:
Temperatura: 88.9 °F 69.4 °F 76.3 °F
Punto de rocio: 60.6 °F 50.2 °F 55.6 °F
Humedad: 65.1% 26.6% 50%
Velocidad viento: 16.8mph 0mph 6.5mph
Racha viento: 28mph - -
Viento- - SSE
Presión: 30.1 in 29.9 in -
Precipitación: 0 in    
 
 
Tabla de datos para Agosto 11, 2019
Hora Temperatura Punto de rocio Presión Viento Velocidad viento Racha viento Humedad Intensidad lluvia(por hora) Nubes
00:04 76.5 °F 56.5 °F 29.9 in SO 3.1 mph 7 mph 50% 0 in
00:09 76.5 °F 56.3 °F 29.9 in SO 3.4 mph 7 mph 49.9% 0 in
00:14 76.5 °F 55.9 °F 29.9 in SO 4.3 mph 6.9 mph 49% 0 in
00:19 76.5 °F 55.9 °F 29.9 in SSO 4.2 mph 7 mph 49% 0 in
00:24 76.5 °F 56.1 °F 29.9 in Sur 4 mph 7 mph 49.3% 0 in
00:29 76.5 °F 56.8 °F 29.9 in ENE 3.2 mph 4.6 mph 50.7% 0 in
00:34 76.1 °F 56.8 °F 29.9 in ENE 1.8 mph 5 mph 51.1% 0 in
00:39 75.7 °F 57 °F 29.9 in ENE 1.8 mph 3.6 mph 52.2% 0 in
00:44 75.4 °F 57.6 °F 29.9 in ENE 1.8 mph 4.6 mph 53.7% 0 in
00:49 74.8 °F 57.7 °F 29.9 in NE 1.9 mph 5 mph 55% 0 in
00:54 74.5 °F 57.7 °F 29.9 in NE 2 mph 4 mph 56% 0 in
00:59 73.9 °F 57.6 °F 29.9 in ENE 2 mph 5 mph 56.7% 0 in
01:04 73.8 °F 57.6 °F 29.9 in ENE 2 mph 5 mph 57% 0 in
01:09 73.6 °F 57.4 °F 29.9 in ENE 1.4 mph 3 mph 57% 0 in
01:14 73.6 °F 57.4 °F 29.9 in Calm   2.3 mph 57% 0 in
01:19 73.6 °F 57.7 °F 29.9 in Calm   2 mph 57.8% 0 in
01:24 73.6 °F 57.7 °F 29.9 in Calm     57.6% 0 in
01:29 73.6 °F 57.4 °F 29.9 in Calm     57% 0 in
01:34 73.6 °F 57.6 °F 29.9 in Calm     57.7% 0 in
01:39 73.4 °F 57.4 °F 29.9 in Calm   4.6 mph 57.5% 0 in
01:44 73.4 °F 57.2 °F 29.9 in Calm   5 mph 57.1% 0 in
01:49 73.2 °F 57.4 °F 29.9 in SSE 0.4 mph 4 mph 57.7% 0 in
01:54 73 °F 57 °F 29.9 in Sur 1.4 mph 5.4 mph 57% 0 in
01:59 72.9 °F 57.2 °F 29.9 in SSE 2.4 mph 7.6 mph 57.6% 0 in
02:04 72.9 °F 57 °F 29.9 in Sur 3.6 mph 8.1 mph 58% 0 in
02:09 72.5 °F 56.8 °F 29.9 in SSO 3.9 mph 8.1 mph 58% 0 in
02:14 72.3 °F 56.7 °F 29.9 in SSO 4.7 mph 8.1 mph 58% 0 in
02:19 72.3 °F 56.7 °F 29.9 in SSO 4.8 mph 8.1 mph 58% 0 in
02:24 72.3 °F 56.7 °F 29.9 in SSO 5.2 mph 8 mph 58% 0 in
02:29 72.3 °F 56.7 °F 29.9 in SSO 5.2 mph 7.4 mph 58% 0 in
02:34 72.5 °F 56.8 °F 29.9 in SSO 5.2 mph 7 mph 58% 0 in
02:39 72.7 °F 57 °F 29.9 in SSO 4.8 mph 6.2 mph 58% 0 in
02:44 72.7 °F 56.8 °F 29.9 in SSO 4 mph 6.4 mph 57.5% 0 in
02:49 72.7 °F 56.8 °F 29.9 in SSO 4.1 mph 7 mph 57.8% 0 in
02:54 72.7 °F 57 °F 29.9 in SSO 4.3 mph 7.4 mph 58% 0 in
02:59 72.7 °F 57 °F 29.9 in SSO 4.5 mph 8.1 mph 58% 0 in
03:04 72.7 °F 57 °F 29.9 in SSO 4.7 mph 8 mph 58% 0 in
03:09 72.7 °F 57 °F 29.9 in SO 4.5 mph 7.4 mph 58% 0 in
03:14 72.7 °F 57 °F 29.9 in SO 4 mph 8.1 mph 58% 0 in
03:19 72.7 °F 57 °F 29.9 in SSO 4.4 mph 8.1 mph 58% 0 in
03:24 72.7 °F 57 °F 29.9 in SSO 5.2 mph 9.2 mph 58% 0 in
03:29 72.7 °F 57 °F 29.9 in SO 5 mph 9 mph 58% 0 in
03:34 72.7 °F 57 °F 29.9 in SO 4.7 mph 8.1 mph 58% 0 in
03:39 72.5 °F 57.2 °F 29.9 in OSO 4.7 mph 8 mph 58.6% 0 in
03:44 72.5 °F 57.4 °F 29.9 in OSO 4.7 mph 6.9 mph 59% 0 in
03:49 72.3 °F 57.2 °F 29.9 in OSO 4.2 mph 7 mph 59% 0 in
03:54 72.3 °F 57.2 °F 29.9 in OSO 3.1 mph 5 mph 59% 0 in
03:59 72.1 °F 57.2 °F 29.9 in OSO 2.6 mph 5 mph 59% 0 in
04:04 72.1 °F 57.4 °F 29.9 in OSO 2 mph 4 mph 59.9% 0 in
04:09 72.1 °F 57.6 °F 29.9 in OSO 1.4 mph 2.3 mph 60% 0 in
04:14 72 °F 57.2 °F 29.9 in Calm   2.9 mph 60% 0 in
04:19 71.6 °F 57.4 °F 29.9 in Calm   3.1 mph 60.7% 0 in
04:24 71.2 °F 57.4 °F 29.9 in Calm   3.5 mph 61.3% 0 in
04:29 70.9 °F 57.4 °F 29.9 in NNO 0.4 mph 3.5 mph 62.3% 0 in
04:34 70.5 °F 57.4 °F 29.9 in NNO 1.4 mph 3 mph 63.2% 0 in
04:39 70.2 °F 57.4 °F 29.9 in NNO 0.9 mph 2 mph 64% 0 in
04:44 69.8 °F 57.4 °F 29.9 in Calm     64.5% 0 in
04:49 69.6 °F 57.4 °F 29.9 in Calm   3.5 mph 65% 0 in
04:54 69.6 °F 57.4 °F 29.9 in Calm   3 mph 65% 0 in
04:59 69.4 °F 57.4 °F 29.9 in Oeste 0.6 mph 4.6 mph 65.1% 0 in
05:04 69.4 °F 57.2 °F 29.9 in Oeste 1.4 mph 5.2 mph 65% 0 in
05:09 69.4 °F 57.2 °F 29.9 in SO 1.9 mph 6.2 mph 65.1% 0 in
05:14 69.6 °F 56.7 °F 29.9 in SSO 2.9 mph 11.2 mph 63.2% 0 in
05:19 70.7 °F 56.3 °F 29.9 in SO 3.9 mph 12 mph 60.2% 0 in
05:24 71.4 °F 56.1 °F 29.9 in SSO 6.2 mph 10.4 mph 58.4% 0 in
05:29 72 °F 55.9 °F 29.9 in SSO 6.4 mph 10 mph 57.1% 0 in
05:34 72 °F 55.9 °F 29.9 in SSO 6.9 mph 9 mph 57% 0 in
05:39 72 °F 55.9 °F 29.9 in SSO 6.6 mph 9 mph 57% 0 in
05:44 72 °F 55.9 °F 29.9 in SO 5.9 mph 8 mph 57% 0 in
05:49 72 °F 55.6 °F 29.9 in SO 5.3 mph 7 mph 56.5% 0 in
05:54 72.1 °F 55.6 °F 29.9 in SO 4 mph 7.6 mph 56% 0 in
05:59 72.1 °F 55.6 °F 29.9 in SO 4.3 mph 8.1 mph 56% 0 in
06:04 72.1 °F 55.6 °F 29.9 in SO 4.7 mph 8.1 mph 56% 0 in
06:09 72.1 °F 55.2 °F 29.9 in SSO 4.8 mph 8.1 mph 55.3% 0 in
06:14 72.3 °F 55.2 °F 29.9 in SSO 5.2 mph 9.7 mph 55% 0 in
06:19 72.3 °F 54.9 °F 30 in SSO 5.3 mph 10 mph 54.4% 0 in
06:24 72.5 °F 55 °F 30 in SSO 5.4 mph 10.4 mph 54% 0 in
06:29 72.7 °F 54.9 °F 30 in SSO 5.6 mph 10 mph 53.6% 0 in
06:34 72.9 °F 54.7 °F 30 in SSO 5.9 mph 10 mph 53% 0 in
06:39 72.9 °F 54.7 °F 30 in SSO 5.9 mph 9.7 mph 53% 0 in
06:44 72.9 °F 54.5 °F 30 in SSO 5.9 mph 10 mph 52.7% 0 in
06:49 73 °F 54.3 °F 30 in SSO 5.7 mph 9 mph 52% 0 in
06:54 73 °F 54.5 °F 30 in SO 5.2 mph 7 mph 52% 0 in
06:59 73 °F 54.5 °F 30 in OSO 4.3 mph 6.9 mph 52% 0 in
07:04 73 °F 54.3 °F 30 in SO 3.1 mph 7 mph 52% 0 in
07:09 73 °F 54.7 °F 30 in SO 3.5 mph 9.2 mph 52.7% 0 in
07:14 72.9 °F 54.7 °F 30 in SO 4.3 mph 9.7 mph 53% 0 in
07:19 72.9 °F 54.3 °F 30 in SO 5 mph 10.4 mph 52.4% 0 in
07:24 72.9 °F 54.1 °F 30 in SO 6.4 mph 10.7 mph 52% 0 in
07:29 72.7 °F 54 °F 30 in SO 6.6 mph 11 mph 52% 0 in
07:34 72.7 °F 54 °F 30 in SO 6.9 mph 12.3 mph 52% 0 in
07:39 72.7 °F 54 °F 30 in SO 6.6 mph 12 mph 52% 0 in
07:44 72.7 °F 54.1 °F 30 in SO 6.2 mph 11.5 mph 52.4% 0 in
07:49 72.7 °F 54.7 °F 30 in SO 6.3 mph 12 mph 53% 0 in
07:54 72.7 °F 54.7 °F 30 in SO 6.4 mph 10 mph 53% 0 in
07:59 72.7 °F 54.5 °F 30 in SSO 6.4 mph 10 mph 53% 0 in
08:04 72.7 °F 54.7 °F 30 in SO 6.4 mph 10.4 mph 53% 0 in
08:09 72.9 °F 54.7 °F 30 in SO 6.6 mph 11.8 mph 53% 0 in
08:14 73 °F 54.7 °F 30 in SO 6.9 mph 12 mph 52.8% 0 in
08:19 73.2 °F 54.5 °F 30 in SSO 6.4 mph 10.4 mph 52.2% 0 in
08:24 73.4 °F 54.7 °F 30 in SSO 5.4 mph 10 mph 52% 0 in
08:29 73.6 °F 54.9 °F 30 in SSO 5.7 mph 10 mph 52% 0 in
08:34 73.8 °F 54.7 °F 30 in SO 6.4 mph 11.8 mph 51.3% 0 in
08:39 73.9 °F 54.7 °F 30 in SSO 6.4 mph 12 mph 51% 0 in
08:44 74.1 °F 54.9 °F 30 in SO 6.4 mph 10.7 mph 51% 0 in
08:49 74.5 °F 54.9 °F 30 in SO 6.2 mph 11 mph 50.2% 0 in
08:54 74.7 °F 54.9 °F 30 in SO 5.9 mph 11.2 mph 50% 0 in
08:59 74.8 °F 54.9 °F 30 in SO 6.1 mph 11.2 mph 50% 0 in
09:04 75 °F 54.9 °F 30 in OSO 6.4 mph 12 mph 49.5% 0 in
09:09 75.2 °F 54.7 °F 30 in OSO 6.7 mph 16.1 mph 49% 0 in
09:14 75.4 °F 54.9 °F 30 in OSO 7.4 mph 16 mph 49% 0 in
09:19 75.4 °F 54.9 °F 30 in OSO 7.8 mph 18.4 mph 49% 0 in
09:24 75.4 °F 55 °F 30 in OSO 8.7 mph 18 mph 49.2% 0 in
09:29 75.6 °F 55 °F 30 in OSO 8.6 mph 16.3 mph 49.1% 0 in
09:34 75.6 °F 55 °F 30 in Oeste 8.5 mph 16.1 mph 49% 0 in
09:39 75.7 °F 55.6 °F 30 in OSO 8.5 mph 14 mph 49.5% 0 in
09:44 75.9 °F 55.4 °F 30 in OSO 8.5 mph 17.3 mph 49% 0 in
09:49 76.1 °F 55.6 °F 30 in OSO 8.7 mph 17.5 mph 49% 0 in
09:54 76.5 °F 55.8 °F 30 in OSO 9.2 mph 17 mph 48.9% 0 in
09:59 76.6 °F 55.6 °F 30 in OSO 9.2 mph 14 mph 48% 0 in
10:04 77.2 °F 55.4 °F 30 in OSO 9.2 mph 16.3 mph 47% 0 in
10:09 77.4 °F 55.2 °F 30 in OSO 8.6 mph 16.1 mph 46.3% 0 in
10:14 77.5 °F 55 °F 30 in Oeste 7.4 mph 16 mph 46% 0 in
10:19 77.5 °F 54.9 °F 30 in OSO 7.8 mph 16.1 mph 45.6% 0 in
10:24 77.5 °F 54.9 °F 30 in OSO 8.7 mph 16.1 mph 45.7% 0 in
10:29 77.9 °F 55 °F 30 in OSO 8.7 mph 16 mph 45.2% 0 in
10:34 78.1 °F 55 °F 30 in OSO 8.7 mph 15.2 mph 45% 0 in
10:39 78.3 °F 54.9 °F 30 in OSO 8.7 mph 15 mph 44.3% 0 in
10:44 78.6 °F 54.9 °F 30 in Oeste 8.7 mph 15 mph 44% 0 in
10:49 79.2 °F 54.7 °F 30 in Oeste 8.5 mph 15 mph 43% 0 in
10:54 79.3 °F 54.9 °F 30 in OSO 8.1 mph 15 mph 43% 0 in
10:59 79.5 °F 54.5 °F 30 in Oeste 7.9 mph 15.2 mph 42.2% 0 in
11:04 79.5 °F 54.3 °F 30 in Oeste 7.6 mph 17.5 mph 42% 0 in
11:09 79.5 °F 54.3 °F 30 in Oeste 8.4 mph 17.3 mph 41.9% 0 in
11:14 79.9 °F 54.7 °F 30 in Oeste 10 mph 17 mph 41.9% 0 in
11:19 80.2 °F 54.3 °F 30 in OSO 9.6 mph 16.1 mph 41% 0 in
11:24 80.4 °F 54.5 °F 30 in Oeste 8.7 mph 15 mph 41% 0 in
11:29 80.8 °F 54.5 °F 30 in OSO 8.6 mph 15 mph 40.6% 0 in
11:34 81 °F 54.9 °F 30 in Oeste 8.5 mph 15 mph 40.7% 0 in
11:39 81 °F 54.5 °F 30 in OSO 8.5 mph 14 mph 40.1% 0 in
11:44 81.1 °F 54.7 °F 30 in Oeste 8.5 mph 14 mph 40.2% 0 in
11:49 81.3 °F 54.9 °F 30 in OSO 8.2 mph 17.3 mph 40.2% 0 in
11:54 81.7 °F 55 °F 30 in OSO 7.6 mph 17.3 mph 40% 0 in
11:59 81.9 °F 55 °F 30 in OSO 8 mph 16 mph 40% 0 in
12:04 82.4 °F 55.2 °F 30 in OSO 8.5 mph 15 mph 39.4% 0 in
12:09 82.8 °F 55.2 °F 30 in OSO 7.8 mph 13 mph 39% 0 in
12:14 82.8 °F 54.9 °F 30 in OSO 6.4 mph 16.8 mph 38.5% 0 in
12:19 82.9 °F 54.7 °F 30 in Oeste 6.8 mph 17 mph 37.9% 0 in
12:24 82.9 °F 54.3 °F 30 in OSO 7.6 mph 15.2 mph 37.6% 0 in
12:29 82.9 °F 54 °F 30 in OSO 7.6 mph 15 mph 37% 0 in
12:34 83.1 °F 54.3 °F 30 in OSO 7.6 mph 13 mph 37.4% 0 in
12:39 83.7 °F 54.7 °F 30 in Oeste 7.4 mph 13 mph 37.3% 0 in
12:44 83.8 °F 54.5 °F 30 in OSO 6.9 mph 12 mph 36.6% 0 in
12:49 84.4 °F 53.8 °F 30 in OSO 6.2 mph 14 mph 35.1% 0 in
12:54 84.4 °F 53.2 °F 30 in OSO 4.7 mph 14 mph 34.5% 0 in
12:59 84.6 °F 52.2 °F 30 in ONO 5.7 mph 15 mph 32.8% 0 in
13:04 84.7 °F 51.6 °F 30 in ONO 6.9 mph 15 mph 32% 0 in
13:09 84.9 °F 51.8 °F 30 in ONO 6.6 mph 15 mph 32.1% 0 in
13:14 85.3 °F 51.8 °F 30 in ONO 5.9 mph 12 mph 31.7% 0 in
13:19 85.5 °F 51.8 °F 30 in Oeste 6.1 mph 11.5 mph 31.5% 0 in
13:24 85.8 °F 51.4 °F 30 in ONO 6.4 mph 12.5 mph 30.7% 0 in
13:29 86.2 °F 51.6 °F 30 in ONO 6.6 mph 13.8 mph 30.5% 0 in
13:34 86.2 °F 50.9 °F 30 in Oeste 6.9 mph 14 mph 29.8% 0 in
13:39 86.4 °F 51.6 °F 30 in Oeste 7.1 mph 15 mph 30.4% 0 in
13:44 86.4 °F 51.3 °F 30 in Oeste 7.4 mph 15 mph 30% 0 in
13:49 86.4 °F 52 °F 30 in Oeste 7.3 mph 12 mph 30.8% 0 in
13:54 86.5 °F 51.8 °F 30 in OSO 6.9 mph 12 mph 30.3% 0 in
13:59 86.7 °F 51.1 °F 30 in ONO 6.2 mph 9 mph 29.4% 0 in
14:04 87.3 °F 50.9 °F 30 in ONO 5.2 mph 9 mph 28.7% 0 in
14:09 87.6 °F 50.5 °F 30 in Oeste 4.9 mph 10.4 mph 28% 0 in
14:14 88 °F 51.3 °F 30 in ONO 4.3 mph 13.5 mph 28.6% 0 in
14:19 88 °F 51.4 °F 30 in ONO 4.7 mph 14 mph 28.8% 0 in
14:24 88 °F 50.9 °F 30 in Oeste 5.4 mph 12 mph 28.2% 0 in
14:29 88.2 °F 50.9 °F 30 in OSO 5.6 mph 12.7 mph 27.9% 0 in
14:34 88.2 °F 50.9 °F 30 in OSO 5.9 mph 13 mph 28% 0 in
14:39 88.3 °F 51.1 °F 30 in ONO 5.7 mph 12.5 mph 28% 0 in
14:44 88.3 °F 51.1 °F 30 in Oeste 5.4 mph 13 mph 28% 0 in
14:49 88.5 °F 50.7 °F 30 in Oeste 5.9 mph 13 mph 27.5% 0 in
14:54 88.9 °F 50.5 °F 30 in SO 6.9 mph 10 mph 27% 0 in
14:59 88.9 °F 50.5 °F 30 in SSO 6.2 mph 11.2 mph 27% 0 in
15:04 88.9 °F 50.2 °F 30 in Oeste 5.2 mph 12 mph 26.6% 0 in
15:09 88.7 °F 54.7 °F 30 in ONO 6.5 mph 26.8 mph 31.7% 0 in
15:14 87.1 °F 57 °F 30 in NE 9.2 mph 27.6 mph 36.1% 0 in
15:19 86.5 °F 57.9 °F 30 in NE 11.1 mph 28 mph 38.1% 0 in
15:24 86.5 °F 57.2 °F 30 in NE 15.2 mph 22.3 mph 37% 0 in
15:29 86.4 °F 57.6 °F 30 in ENE 14 mph 22 mph 37.7% 0 in
15:34 86.4 °F 57.4 °F 30 in NE 11.4 mph 21.3 mph 37.7% 0 in
15:39 86.2 °F 57.9 °F 30 in NE 11.7 mph 21 mph 38.5% 0 in
15:44 85.6 °F 57.9 °F 30 in NE 12.3 mph 26.3 mph 39% 0 in
15:49 84.4 °F 58.1 °F 30 in NE 13.3 mph 26.5 mph 41% 0 in
15:54 83.8 °F 58.3 °F 30 in NE 15.6 mph 26 mph 42% 0 in
15:59 83.7 °F 58.1 °F 30 in NE 14.8 mph 25 mph 42% 0 in
16:04 83.7 °F 58.1 °F 30 in NE 13.7 mph 23 mph 42.2% 0 in
16:09 83.1 °F 58.3 °F 30 in NE 13.7 mph 23 mph 43% 0 in
16:14 82.9 °F 59.4 °F 30 in NE 13.5 mph 22.3 mph 44.8% 0 in
16:19 82.4 °F 59.5 °F 30 in NE 13.5 mph 22 mph 46% 0 in
16:24 82.2 °F 59.4 °F 30 in NE 13.7 mph 23 mph 45.9% 0 in
16:29 82 °F 59.7 °F 30 in NE 13.5 mph 23 mph 46.5% 0 in
16:34 81.5 °F 60.1 °F 30 in NE 13 mph 23.5 mph 48.3% 0 in
16:39 80.8 °F 60.1 °F 30 in NE 13.7 mph 25.3 mph 49.6% 0 in
16:44 80.1 °F 59.9 °F 30 in ENE 15.2 mph 25 mph 50% 0 in
16:49 79.7 °F 59.9 °F 30 in NE 15.5 mph 25.6 mph 51% 0 in
16:54 79.3 °F 59.9 °F 30 in NE 16.3 mph 26.5 mph 51.4% 0 in
16:59 79.2 °F 60.4 °F 30 in NE 16.5 mph 26 mph 52.6% 0 in
17:04 79.5 °F 60.6 °F 30 in NE 16.8 mph 24.2 mph 52.4% 0 in
17:09 79.3 °F 60.6 °F 30 in NE 16.1 mph 25.6 mph 53% 0 in
17:14 78.8 °F 60.6 °F 30 in NE 14.5 mph 26 mph 53.8% 0 in
17:19 78.8 °F 60.4 °F 30 in NE 14.5 mph 24.2 mph 53.7% 0 in
17:24 78.4 °F 60.4 °F 30 in NE 14.5 mph 24.6 mph 54% 0 in
17:29 77.9 °F 60.3 °F 30 in NE 14.9 mph 25 mph 54.7% 0 in
17:34 77.5 °F 60.1 °F 30 in NE 15.9 mph 26.1 mph 55% 0 in
17:39 77.5 °F 60.1 °F 30 in NE 15.8 mph 26 mph 55% 0 in
17:44 77.7 °F 59.7 °F 30 in NE 15.6 mph 23 mph 54.1% 0 in
17:49 77.4 °F 59.4 °F 30 in NE 15.3 mph 26.5 mph 53.8% 0 in
17:54 77 °F 59.2 °F 30 in NE 14.5 mph 26 mph 54.1% 0 in
17:59 77.2 °F 59.2 °F 30 in ENE 13.5 mph 21.9 mph 54% 0 in
18:04 77.4 °F 59 °F 30 in NE 12.3 mph 23 mph 53.4% 0 in
18:09 77.2 °F 58.6 °F 30 in NE 12 mph 23 mph 53% 0 in
18:14 76.8 °F 58.5 °F 30 in NE 11.4 mph 23 mph 53.1% 0 in
18:19 76.8 °F 58.5 °F 30 in NE 11.4 mph 21.9 mph 53.4% 0 in
18:24 76.6 °F 58.1 °F 30 in NE 11.4 mph 22 mph 53% 0 in
18:29 76.5 °F 58.1 °F 30 in NE 11.9 mph 19 mph 53% 0 in
18:34 76.5 °F 58.3 °F 30 in ENE 13 mph 19 mph 53.6% 0 in
18:39 76.5 °F 57.7 °F 30 in ENE 11.9 mph 18 mph 52.3% 0 in
18:44 76.5 °F 57.7 °F 30 in NE 9.7 mph 17.3 mph 52.5% 0 in
18:49 75.9 °F 57 °F 30 in ENE 10 mph 23 mph 52% 0 in
18:54 75.6 °F 56.8 °F 30 in ENE 10.7 mph 23 mph 52% 0 in
18:59 75.6 °F 56.5 °F 30 in NE 10.3 mph 18.4 mph 51.6% 0 in
19:04 75.6 °F 56.3 °F 30 in Este 9.7 mph 18 mph 51% 0 in
19:09 75.6 °F 56.1 °F 30 in ENE 9.5 mph 18 mph 50.6% 0 in
19:14 75.6 °F 55.6 °F 30 in NE 9.2 mph 19.6 mph 49.9% 0 in
19:19 75.4 °F 55.4 °F 30 in NE 9.2 mph 20 mph 50% 0 in
19:24 75.4 °F 55.4 °F 30 in NE 9.2 mph 16.1 mph 50.1% 0 in
19:29 75.6 °F 55.6 °F 30 in NE 8.4 mph 15 mph 50% 0 in
19:34 75.6 °F 55 °F 30 in NE 6.9 mph 13 mph 49% 0 in
19:39 75.4 °F 54.9 °F 30 in ENE 7.3 mph 15 mph 49.1% 0 in
19:44 75 °F 55 °F 30 in ENE 8.1 mph 15 mph 49.8% 0 in
19:49 74.8 °F 54.7 °F 30 in Este 8.2 mph 16.1 mph 49.2% 0 in
19:54 74.7 °F 54.3 °F 30 in Este 8.5 mph 16 mph 49.1% 0 in
19:59 74.7 °F 54.5 °F 30 in Este 8.8 mph 15 mph 49.6% 0 in
20:04 74.5 °F 54.5 °F 30 in Este 9.2 mph 15 mph 49.5% 0 in
20:09 74.5 °F 54.3 °F 30 in ENE 8.7 mph 15 mph 49.3% 0 in
20:14 74.5 °F 54.3 °F 30 in NE 7.6 mph 13.7 mph 49.4% 0 in
20:19 74.5 °F 54 °F 30 in ENE 7.1 mph 15 mph 49% 0 in
20:24 74.1 °F 54.1 °F 30 in Este 5.9 mph 15 mph 49.7% 0 in
20:29 73.9 °F 54.1 °F 30 in ENE 6.2 mph 12.7 mph 50% 0 in
20:34 73.8 °F 54.1 °F 30.1 in NE 6.9 mph 13 mph 50.1% 0 in
20:39 73.8 °F 54.3 °F 30.1 in ENE 6.6 mph 13.8 mph 50.7% 0 in
20:44 73.6 °F 54.3 °F 30.1 in NE 5.9 mph 14 mph 51% 0 in
20:49 73.6 °F 54.3 °F 30.1 in NE 5.5 mph 9.2 mph 51% 0 in
20:54 73.4 °F 54.3 °F 30.1 in NE 4.7 mph 9 mph 51% 0 in
20:59 73.2 °F 54.1 °F 30.1 in ENE 4.5 mph 8.1 mph 51.4% 0 in
21:04 73 °F 54.3 °F 30.1 in ENE 4.3 mph 8.5 mph 52% 0 in
21:09 72.9 °F 54.1 °F 30.1 in NE 4.6 mph 9.2 mph 52% 0 in
21:14 72.7 °F 54 °F 30.1 in ENE 5.2 mph 9 mph 52.1% 0 in
21:19 72.5 °F 54.3 °F 30.1 in ENE 4.9 mph 7.4 mph 52.9% 0 in
21:24 72.3 °F 54.3 °F 30.1 in NE 4.3 mph 7 mph 53% 0 in
21:29 72.3 °F 54.3 °F 30.1 in NE 4.1 mph 7 mph 53.4% 0 in
21:34 72.1 °F 54.7 °F 30.1 in ENE 3.6 mph 7 mph 54% 0 in
21:39 72 °F 54.5 °F 30.1 in ENE 3.8 mph 7 mph 54% 0 in
21:44 72 °F 54.3 °F 30.1 in ENE 4.3 mph 7 mph 54% 0 in
21:49 71.8 °F 54.3 °F 30.1 in ENE 3.9 mph 6 mph 54.2% 0 in
21:54 71.8 °F 54.5 °F 30.1 in NE 2.9 mph 6 mph 54.7% 0 in
21:59 71.4 °F 54.3 °F 30.1 in NE 3.4 mph 8.1 mph 54.9% 0 in
22:04 71.2 °F 54.3 °F 30.1 in ENE 4 mph 8 mph 55% 0 in
22:09 71.2 °F 54.1 °F 30.1 in ENE 4 mph 8 mph 55% 0 in
22:14 71.1 °F 54.1 °F 30.1 in ENE 4 mph 7 mph 55% 0 in
22:19 71.1 °F 54.1 °F 30.1 in NE 3.7 mph 6 mph 55% 0 in
22:24 70.9 °F 54.1 °F 30.1 in NE 3.1 mph 6.9 mph 55.3% 0 in
22:29 70.9 °F 54.3 °F 30.1 in NE 3.4 mph 7 mph 55.9% 0 in
22:34 70.7 °F 54.1 °F 30.1 in NE 4 mph 8.1 mph 56% 0 in
22:39 70.5 °F 54.1 °F 30.1 in NE 4.2 mph 8 mph 56.2% 0 in
22:44 70.2 °F 54.3 °F 30.1 in NE 4.7 mph 7.4 mph 57% 0 in
22:49 70 °F 54.3 °F 30.1 in NE 4.6 mph 7 mph 57.6% 0 in
22:54 70 °F 54.5 °F 30.1 in NE 4.3 mph 6.9 mph 58% 0 in
22:59 69.8 °F 54.3 °F 30.1 in NE 4.2 mph 7 mph 58% 0 in
23:04 69.8 °F 54.7 °F 30.1 in NNE 4 mph 6 mph 58.7% 0 in
23:09 69.8 °F 54.7 °F 30.1 in NE 3.6 mph 5.2 mph 59% 0 in
23:14 69.6 °F 54.7 °F 30.1 in NE 2.9 mph 5 mph 59% 0 in
23:19 69.8 °F 54.9 °F 30.1 in NE 2.4 mph 3 mph 59% 0 in
23:24 69.8 °F 54.9 °F 30.1 in NE 1.4 mph 2.9 mph 59% 0 in
23:29 70 °F 55 °F 30.1 in NNE 1.4 mph 3.6 mph 59% 0 in
23:34 70 °F 55 °F 30.1 in NNO 1.4 mph 4 mph 59% 0 in
23:39 69.8 °F 54.9 °F 30.1 in NNO 1.5 mph 4 mph 59% 0 in
23:44 69.6 °F 54.7 °F 30.1 in NNO 1.8 mph 3 mph 59% 0 in
23:49 69.6 °F 54.7 °F 30.1 in NNO 1.2 mph 4.3 mph 59% 0 in
23:54 69.6 °F 54.5 °F 30.1 in Calm   6.2 mph 58.8% 0 in
23:59 69.4 °F 54.3 °F 30.1 in North 0.9 mph 6 mph 58.6% 0 in
Murcia-Puente Tocinos, España
Compliments of Weather Underground - 2.75 mb

La estación de MeteoMurcia.com, publica sus datos en los siguientes proyectos:

Weather Underground PWS IMURCIAP2 Meteoclimatic www.awekas.at

W3Counter
Web Analytics